sensor_id;sensor_type;location;lat;lon;timestamp;temperature;humidity
67194;DHT22;54121;53.508;49.422;2022-11-11T00:01:04;9.20;71.90
67194;DHT22;54121;53.508;49.422;2022-11-11T00:03:31;9.30;71.30
67194;DHT22;54121;53.508;49.422;2022-11-11T00:06:02;9.30;71.40
67194;DHT22;54121;53.508;49.422;2022-11-11T00:08:29;9.30;71.20
67194;DHT22;54121;53.508;49.422;2022-11-11T00:11:12;9.30;71.00
67194;DHT22;54121;53.508;49.422;2022-11-11T00:13:39;9.40;70.80
67194;DHT22;54121;53.508;49.422;2022-11-11T00:18:36;9.50;70.20
67194;DHT22;54121;53.508;49.422;2022-11-11T00:21:22;9.40;70.50
67194;DHT22;54121;53.508;49.422;2022-11-11T00:24:24;9.50;70.50
67194;DHT22;54121;53.508;49.422;2022-11-11T00:27:10;9.50;70.10
67194;DHT22;54121;53.508;49.422;2022-11-11T00:29:38;9.30;70.50
67194;DHT22;54121;53.508;49.422;2022-11-11T00:32:06;9.20;71.90
67194;DHT22;54121;53.508;49.422;2022-11-11T00:34:54;9.30;71.70
67194;DHT22;54121;53.508;49.422;2022-11-11T00:37:40;9.20;71.70
67194;DHT22;54121;53.508;49.422;2022-11-11T00:40:07;9.10;71.80
67194;DHT22;54121;53.508;49.422;2022-11-11T00:42:34;9.30;71.50
67194;DHT22;54121;53.508;49.422;2022-11-11T00:45:01;9.20;71.30
67194;DHT22;54121;53.508;49.422;2022-11-11T00:47:28;9.30;71.40
67194;DHT22;54121;53.508;49.422;2022-11-11T00:50:23;9.30;70.90
67194;DHT22;54121;53.508;49.422;2022-11-11T00:53:14;9.30;71.00
67194;DHT22;54121;53.508;49.422;2022-11-11T00:55:41;9.50;70.10
67194;DHT22;54121;53.508;49.422;2022-11-11T00:58:08;9.30;70.50
67194;DHT22;54121;53.508;49.422;2022-11-11T01:00:34;9.40;71.00
67194;DHT22;54121;53.508;49.422;2022-11-11T01:03:01;9.20;71.20
67194;DHT22;54121;53.508;49.422;2022-11-11T01:05:28;9.20;71.70
67194;DHT22;54121;53.508;49.422;2022-11-11T01:07:54;9.30;71.30
67194;DHT22;54121;53.508;49.422;2022-11-11T01:10:24;9.20;71.70
67194;DHT22;54121;53.508;49.422;2022-11-11T01:13:14;9.10;72.00
67194;DHT22;54121;53.508;49.422;2022-11-11T01:15:43;9.40;70.70
67194;DHT22;54121;53.508;49.422;2022-11-11T01:18:12;9.40;70.30
67194;DHT22;54121;53.508;49.422;2022-11-11T01:20:38;9.40;70.20
67194;DHT22;54121;53.508;49.422;2022-11-11T01:23:08;9.10;70.90
67194;DHT22;54121;53.508;49.422;2022-11-11T01:25:36;9.30;70.90
67194;DHT22;54121;53.508;49.422;2022-11-11T01:28:03;9.40;69.90
67194;DHT22;54121;53.508;49.422;2022-11-11T01:30:32;9.40;69.50
67194;DHT22;54121;53.508;49.422;2022-11-11T01:32:59;9.50;70.10
67194;DHT22;54121;53.508;49.422;2022-11-11T01:35:26;9.60;69.50
67194;DHT22;54121;53.508;49.422;2022-11-11T01:37:52;9.70;68.60
67194;DHT22;54121;53.508;49.422;2022-11-11T01:40:19;9.60;68.80
67194;DHT22;54121;53.508;49.422;2022-11-11T01:42:51;9.60;68.80
67194;DHT22;54121;53.508;49.422;2022-11-11T01:48:34;9.70;67.50
67194;DHT22;54121;53.508;49.422;2022-11-11T01:51:48;9.60;68.20
67194;DHT22;54121;53.508;49.422;2022-11-11T01:59:55;9.40;69.50
67194;DHT22;54121;53.508;49.422;2022-11-11T02:05:05;9.50;68.40
67194;DHT22;54121;53.508;49.422;2022-11-11T02:07:51;9.60;68.20
67194;DHT22;54121;53.508;49.422;2022-11-11T02:10:22;9.40;68.20
67194;DHT22;54121;53.508;49.422;2022-11-11T02:12:49;9.50;68.00
67194;DHT22;54121;53.508;49.422;2022-11-11T02:15:35;9.60;67.40
67194;DHT22;54121;53.508;49.422;2022-11-11T02:18:03;9.50;67.30
67194;DHT22;54121;53.508;49.422;2022-11-11T02:20:37;9.30;68.00
67194;DHT22;54121;53.508;49.422;2022-11-11T02:23:18;9.20;68.50
67194;DHT22;54121;53.508;49.422;2022-11-11T02:25:48;9.30;68.40
67194;DHT22;54121;53.508;49.422;2022-11-11T02:28:16;9.30;68.10
67194;DHT22;54121;53.508;49.422;2022-11-11T02:30:45;9.20;68.50
67194;DHT22;54121;53.508;49.422;2022-11-11T02:33:12;9.20;68.70
67194;DHT22;54121;53.508;49.422;2022-11-11T02:35:50;9.00;69.20
67194;DHT22;54121;53.508;49.422;2022-11-11T02:38:25;8.90;69.40
67194;DHT22;54121;53.508;49.422;2022-11-11T02:40:52;8.90;69.70
67194;DHT22;54121;53.508;49.422;2022-11-11T02:43:36;8.80;70.40
67194;DHT22;54121;53.508;49.422;2022-11-11T02:46:04;9.00;69.80
67194;DHT22;54121;53.508;49.422;2022-11-11T02:48:32;9.00;69.20
67194;DHT22;54121;53.508;49.422;2022-11-11T02:50:58;8.90;69.30
67194;DHT22;54121;53.508;49.422;2022-11-11T02:53:25;8.60;70.20
67194;DHT22;54121;53.508;49.422;2022-11-11T02:55:51;8.60;71.00
67194;DHT22;54121;53.508;49.422;2022-11-11T02:58:18;8.60;71.00
67194;DHT22;54121;53.508;49.422;2022-11-11T03:00:44;8.60;70.60
67194;DHT22;54121;53.508;49.422;2022-11-11T03:03:11;8.40;70.70
67194;DHT22;54121;53.508;49.422;2022-11-11T03:05:38;8.50;71.10
67194;DHT22;54121;53.508;49.422;2022-11-11T03:08:04;8.50;70.90
67194;DHT22;54121;53.508;49.422;2022-11-11T03:10:31;8.50;70.70
67194;DHT22;54121;53.508;49.422;2022-11-11T03:12:57;8.60;70.40
67194;DHT22;54121;53.508;49.422;2022-11-11T03:15:24;8.70;69.80
67194;DHT22;54121;53.508;49.422;2022-11-11T03:17:50;8.70;69.50
67194;DHT22;54121;53.508;49.422;2022-11-11T03:20:18;8.50;70.40
67194;DHT22;54121;53.508;49.422;2022-11-11T03:23:15;8.50;70.50
67194;DHT22;54121;53.508;49.422;2022-11-11T03:25:46;8.50;70.40
67194;DHT22;54121;53.508;49.422;2022-11-11T03:28:18;8.60;70.30
67194;DHT22;54121;53.508;49.422;2022-11-11T03:30:49;8.50;70.30
67194;DHT22;54121;53.508;49.422;2022-11-11T03:33:17;8.30;70.50
67194;DHT22;54121;53.508;49.422;2022-11-11T03:35:46;8.30;71.50
67194;DHT22;54121;53.508;49.422;2022-11-11T03:38:13;8.40;71.20
67194;DHT22;54121;53.508;49.422;2022-11-11T03:40:53;8.50;70.80
67194;DHT22;54121;53.508;49.422;2022-11-11T03:43:23;8.20;71.30
67194;DHT22;54121;53.508;49.422;2022-11-11T03:45:51;8.10;71.60
67194;DHT22;54121;53.508;49.422;2022-11-11T03:48:19;8.10;72.00
67194;DHT22;54121;53.508;49.422;2022-11-11T03:50:46;8.10;71.60
67194;DHT22;54121;53.508;49.422;2022-11-11T03:53:14;8.00;71.80
67194;DHT22;54121;53.508;49.422;2022-11-11T03:55:41;7.90;72.40
67194;DHT22;54121;53.508;49.422;2022-11-11T03:58:07;7.90;73.00
67194;DHT22;54121;53.508;49.422;2022-11-11T04:00:34;7.70;73.80
67194;DHT22;54121;53.508;49.422;2022-11-11T04:06:00;8.00;73.30
67194;DHT22;54121;53.508;49.422;2022-11-11T04:08:47;8.10;73.00
67194;DHT22;54121;53.508;49.422;2022-11-11T04:11:33;8.50;71.70
67194;DHT22;54121;53.508;49.422;2022-11-11T04:14:03;8.70;70.00
67194;DHT22;54121;53.508;49.422;2022-11-11T04:16:49;8.80;70.70
67194;DHT22;54121;53.508;49.422;2022-11-11T04:19:16;8.90;69.50
67194;DHT22;54121;53.508;49.422;2022-11-11T04:22:01;8.90;68.10
67194;DHT22;54121;53.508;49.422;2022-11-11T04:24:28;8.80;68.80
67194;DHT22;54121;53.508;49.422;2022-11-11T04:27:15;9.00;68.60
67194;DHT22;54121;53.508;49.422;2022-11-11T04:29:42;9.20;67.30
67194;DHT22;54121;53.508;49.422;2022-11-11T04:32:11;9.50;65.80
67194;DHT22;54121;53.508;49.422;2022-11-11T04:34:59;9.40;65.80
67194;DHT22;54121;53.508;49.422;2022-11-11T04:37:30;9.50;65.40
67194;DHT22;54121;53.508;49.422;2022-11-11T04:39:57;9.80;63.90
67194;DHT22;54121;53.508;49.422;2022-11-11T04:42:42;10.10;63.10
67194;DHT22;54121;53.508;49.422;2022-11-11T04:45:11;10.00;62.20
67194;DHT22;54121;53.508;49.422;2022-11-11T04:50:23;10.00;62.30
67194;DHT22;54121;53.508;49.422;2022-11-11T04:52:50;9.80;63.30
67194;DHT22;54121;53.508;49.422;2022-11-11T04:55:17;10.00;62.20
67194;DHT22;54121;53.508;49.422;2022-11-11T04:58:02;10.30;61.40
67194;DHT22;54121;53.508;49.422;2022-11-11T05:00:29;10.60;60.40
67194;DHT22;54121;53.508;49.422;2022-11-11T05:02:56;10.70;59.80
67194;DHT22;54121;53.508;49.422;2022-11-11T05:08:34;10.50;59.20
67194;DHT22;54121;53.508;49.422;2022-11-11T05:11:20;10.80;58.90
67194;DHT22;54121;53.508;49.422;2022-11-11T05:13:47;10.70;58.50
67194;DHT22;54121;53.508;49.422;2022-11-11T05:16:41;10.50;59.50
67194;DHT22;54121;53.508;49.422;2022-11-11T05:19:26;10.90;58.90
67194;DHT22;54121;53.508;49.422;2022-11-11T05:22:13;11.30;56.90
67194;DHT22;54121;53.508;49.422;2022-11-11T05:24:41;11.40;55.70
67194;DHT22;54121;53.508;49.422;2022-11-11T05:27:26;11.40;56.10
67194;DHT22;54121;53.508;49.422;2022-11-11T05:29:53;12.00;54.20
67194;DHT22;54121;53.508;49.422;2022-11-11T05:32:21;12.10;52.90
67194;DHT22;54121;53.508;49.422;2022-11-11T05:34:48;12.20;52.30
67194;DHT22;54121;53.508;49.422;2022-11-11T05:37:15;12.20;52.50
67194;DHT22;54121;53.508;49.422;2022-11-11T05:39:42;12.60;51.00
67194;DHT22;54121;53.508;49.422;2022-11-11T05:42:09;12.90;49.80
67194;DHT22;54121;53.508;49.422;2022-11-11T05:44:36;12.30;52.00
67194;DHT22;54121;53.508;49.422;2022-11-11T05:47:06;12.30;51.80
67194;DHT22;54121;53.508;49.422;2022-11-11T05:49:32;12.60;51.00
67194;DHT22;54121;53.508;49.422;2022-11-11T05:51:59;13.10;49.60
67194;DHT22;54121;53.508;49.422;2022-11-11T05:54:26;13.40;48.50
67194;DHT22;54121;53.508;49.422;2022-11-11T05:56:52;13.80;47.10
67194;DHT22;54121;53.508;49.422;2022-11-11T05:59:19;13.50;47.10
67194;DHT22;54121;53.508;49.422;2022-11-11T06:01:46;13.40;48.10
67194;DHT22;54121;53.508;49.422;2022-11-11T06:04:12;13.40;47.30
67194;DHT22;54121;53.508;49.422;2022-11-11T06:06:39;13.60;47.40
67194;DHT22;54121;53.508;49.422;2022-11-11T06:09:05;13.90;46.50
67194;DHT22;54121;53.508;49.422;2022-11-11T06:11:32;14.20;44.70
67194;DHT22;54121;53.508;49.422;2022-11-11T06:13:58;14.10;44.60
67194;DHT22;54121;53.508;49.422;2022-11-11T06:16:25;13.80;45.50
67194;DHT22;54121;53.508;49.422;2022-11-11T06:18:52;14.00;45.10
67194;DHT22;54121;53.508;49.422;2022-11-11T06:21:18;14.20;44.40
67194;DHT22;54121;53.508;49.422;2022-11-11T06:23:45;14.00;44.70
67194;DHT22;54121;53.508;49.422;2022-11-11T06:26:12;14.10;44.20
67194;DHT22;54121;53.508;49.422;2022-11-11T06:28:46;14.50;43.90
67194;DHT22;54121;53.508;49.422;2022-11-11T06:31:15;14.40;43.30
67194;DHT22;54121;53.508;49.422;2022-11-11T06:33:43;14.30;43.60
67194;DHT22;54121;53.508;49.422;2022-11-11T06:36:12;14.40;43.90
67194;DHT22;54121;53.508;49.422;2022-11-11T06:38:40;14.60;43.20
67194;DHT22;54121;53.508;49.422;2022-11-11T06:41:08;14.70;42.20
67194;DHT22;54121;53.508;49.422;2022-11-11T06:43:35;14.60;42.50
67194;DHT22;54121;53.508;49.422;2022-11-11T06:46:01;14.50;42.70
67194;DHT22;54121;53.508;49.422;2022-11-11T06:48:28;14.40;43.10
67194;DHT22;54121;53.508;49.422;2022-11-11T06:51:03;14.60;42.70
67194;DHT22;54121;53.508;49.422;2022-11-11T06:53:30;15.00;41.90
67194;DHT22;54121;53.508;49.422;2022-11-11T06:55:57;15.10;41.50
67194;DHT22;54121;53.508;49.422;2022-11-11T06:58:24;15.20;41.00
67194;DHT22;54121;53.508;49.422;2022-11-11T07:00:51;15.40;40.20
67194;DHT22;54121;53.508;49.422;2022-11-11T07:03:19;15.50;40.20
67194;DHT22;54121;53.508;49.422;2022-11-11T07:05:46;15.40;39.80
67194;DHT22;54121;53.508;49.422;2022-11-11T07:08:15;15.10;40.30
67194;DHT22;54121;53.508;49.422;2022-11-11T07:10:47;15.10;40.40
67194;DHT22;54121;53.508;49.422;2022-11-11T07:13:15;15.20;40.30
67194;DHT22;54121;53.508;49.422;2022-11-11T07:15:42;15.60;39.10
67194;DHT22;54121;53.508;49.422;2022-11-11T07:18:10;16.00;38.50
67194;DHT22;54121;53.508;49.422;2022-11-11T07:20:37;16.00;37.50
67194;DHT22;54121;53.508;49.422;2022-11-11T07:23:05;15.80;38.00
67194;DHT22;54121;53.508;49.422;2022-11-11T07:25:32;15.70;37.80
67194;DHT22;54121;53.508;49.422;2022-11-11T07:27:58;15.80;38.30
67194;DHT22;54121;53.508;49.422;2022-11-11T07:30:25;16.00;37.80
67194;DHT22;54121;53.508;49.422;2022-11-11T07:32:52;15.90;37.90
67194;DHT22;54121;53.508;49.422;2022-11-11T07:35:20;15.90;37.80
67194;DHT22;54121;53.508;49.422;2022-11-11T07:37:47;16.10;37.60
67194;DHT22;54121;53.508;49.422;2022-11-11T07:40:16;16.00;37.70
67194;DHT22;54121;53.508;49.422;2022-11-11T07:42:43;15.30;39.00
67194;DHT22;54121;53.508;49.422;2022-11-11T07:45:11;15.00;39.50
67194;DHT22;54121;53.508;49.422;2022-11-11T07:47:38;15.30;39.70
67194;DHT22;54121;53.508;49.422;2022-11-11T07:50:05;15.90;38.50
67194;DHT22;54121;53.508;49.422;2022-11-11T07:52:33;15.90;38.50
67194;DHT22;54121;53.508;49.422;2022-11-11T07:54:59;16.30;37.10
67194;DHT22;54121;53.508;49.422;2022-11-11T07:57:26;15.90;37.80
67194;DHT22;54121;53.508;49.422;2022-11-11T07:59:52;16.00;37.60
67194;DHT22;54121;53.508;49.422;2022-11-11T08:02:19;16.10;37.70
67194;DHT22;54121;53.508;49.422;2022-11-11T08:04:45;16.20;36.60
67194;DHT22;54121;53.508;49.422;2022-11-11T08:07:13;15.90;38.20
67194;DHT22;54121;53.508;49.422;2022-11-11T08:09:40;15.40;38.70
67194;DHT22;54121;53.508;49.422;2022-11-11T08:12:07;15.70;39.30
67194;DHT22;54121;53.508;49.422;2022-11-11T08:14:52;16.20;38.00
67194;DHT22;54121;53.508;49.422;2022-11-11T08:17:19;16.40;37.20
67194;DHT22;54121;53.508;49.422;2022-11-11T08:19:45;15.90;38.40
67194;DHT22;54121;53.508;49.422;2022-11-11T08:22:12;16.00;38.30
67194;DHT22;54121;53.508;49.422;2022-11-11T08:24:38;15.80;38.90
67194;DHT22;54121;53.508;49.422;2022-11-11T08:27:05;15.70;39.40
67194;DHT22;54121;53.508;49.422;2022-11-11T08:29:31;15.60;39.50
67194;DHT22;54121;53.508;49.422;2022-11-11T08:31:58;15.80;39.20
67194;DHT22;54121;53.508;49.422;2022-11-11T08:34:25;16.10;38.70
67194;DHT22;54121;53.508;49.422;2022-11-11T08:36:51;16.30;38.60
67194;DHT22;54121;53.508;49.422;2022-11-11T08:39:18;16.20;38.20
67194;DHT22;54121;53.508;49.422;2022-11-11T08:41:45;15.70;39.50
67194;DHT22;54121;53.508;49.422;2022-11-11T08:44:11;15.50;40.10
67194;DHT22;54121;53.508;49.422;2022-11-11T08:46:38;15.10;41.30
67194;DHT22;54121;53.508;49.422;2022-11-11T08:49:04;15.30;40.90
67194;DHT22;54121;53.508;49.422;2022-11-11T08:51:31;15.10;42.00
67194;DHT22;54121;53.508;49.422;2022-11-11T08:53:57;15.30;41.10
67194;DHT22;54121;53.508;49.422;2022-11-11T08:56:24;15.60;40.80
67194;DHT22;54121;53.508;49.422;2022-11-11T08:58:51;15.70;40.00
67194;DHT22;54121;53.508;49.422;2022-11-11T09:01:17;16.10;39.60
67194;DHT22;54121;53.508;49.422;2022-11-11T09:03:44;16.50;38.60
67194;DHT22;54121;53.508;49.422;2022-11-11T09:06:11;16.40;38.60
67194;DHT22;54121;53.508;49.422;2022-11-11T09:08:41;16.40;38.60
67194;DHT22;54121;53.508;49.422;2022-11-11T09:11:08;16.30;38.70
67194;DHT22;54121;53.508;49.422;2022-11-11T09:13:34;15.80;39.40
67194;DHT22;54121;53.508;49.422;2022-11-11T09:16:01;15.70;40.90
67194;DHT22;54121;53.508;49.422;2022-11-11T09:18:27;15.40;40.90
67194;DHT22;54121;53.508;49.422;2022-11-11T09:21:00;15.00;42.10
67194;DHT22;54121;53.508;49.422;2022-11-11T09:23:26;15.10;41.90
67194;DHT22;54121;53.508;49.422;2022-11-11T09:25:53;14.90;42.80
67194;DHT22;54121;53.508;49.422;2022-11-11T09:28:19;15.00;42.90
67194;DHT22;54121;53.508;49.422;2022-11-11T09:30:46;15.30;42.30
67194;DHT22;54121;53.508;49.422;2022-11-11T09:33:12;15.70;41.30
67194;DHT22;54121;53.508;49.422;2022-11-11T09:35:41;15.50;40.90
67194;DHT22;54121;53.508;49.422;2022-11-11T09:38:08;15.20;41.10
67194;DHT22;54121;53.508;49.422;2022-11-11T09:46:16;15.90;41.40
67194;DHT22;54121;53.508;49.422;2022-11-11T09:49:15;16.50;39.20
67194;DHT22;54121;53.508;49.422;2022-11-11T09:51:52;16.40;39.40
67194;DHT22;54121;53.508;49.422;2022-11-11T09:54:35;16.50;38.80
67194;DHT22;54121;53.508;49.422;2022-11-11T09:58:02;15.80;40.10
67194;DHT22;54121;53.508;49.422;2022-11-11T10:00:20;16.10;40.50
67194;DHT22;54121;53.508;49.422;2022-11-11T10:02:51;16.60;38.90
67194;DHT22;54121;53.508;49.422;2022-11-11T10:05:24;16.80;38.30
67194;DHT22;54121;53.508;49.422;2022-11-11T10:07:53;17.10;37.20
67194;DHT22;54121;53.508;49.422;2022-11-11T10:10:39;16.60;38.00
67194;DHT22;54121;53.508;49.422;2022-11-11T10:13:15;16.10;40.20
67194;DHT22;54121;53.508;49.422;2022-11-11T10:21:23;16.10;40.30
67194;DHT22;54121;53.508;49.422;2022-11-11T10:23:54;16.00;40.40
67194;DHT22;54121;53.508;49.422;2022-11-11T10:26:38;16.70;38.60
67194;DHT22;54121;53.508;49.422;2022-11-11T10:29:17;17.20;37.30
67194;DHT22;54121;53.508;49.422;2022-11-11T10:31:46;17.40;36.60
67194;DHT22;54121;53.508;49.422;2022-11-11T10:34:17;16.70;37.70
67194;DHT22;54121;53.508;49.422;2022-11-11T10:36:53;16.00;39.20
67194;DHT22;54121;53.508;49.422;2022-11-11T10:42:15;16.40;39.20
67194;DHT22;54121;53.508;49.422;2022-11-11T10:44:43;16.50;38.70
67194;DHT22;54121;53.508;49.422;2022-11-11T10:50:00;16.50;38.70
67194;DHT22;54121;53.508;49.422;2022-11-11T10:52:35;16.60;38.70
67194;DHT22;54121;53.508;49.422;2022-11-11T10:55:20;16.80;37.80
67194;DHT22;54121;53.508;49.422;2022-11-11T10:57:56;17.00;37.70
67194;DHT22;54121;53.508;49.422;2022-11-11T11:00:25;16.40;37.80
67194;DHT22;54121;53.508;49.422;2022-11-11T11:08:13;15.90;40.90
67194;DHT22;54121;53.508;49.422;2022-11-11T11:10:46;15.90;39.90
67194;DHT22;54121;53.508;49.422;2022-11-11T11:13:31;16.30;39.20
67194;DHT22;54121;53.508;49.422;2022-11-11T11:16:05;16.10;39.30
67194;DHT22;54121;53.508;49.422;2022-11-11T11:18:34;16.40;38.40
67194;DHT22;54121;53.508;49.422;2022-11-11T11:21:02;16.30;38.70
67194;DHT22;54121;53.508;49.422;2022-11-11T11:23:44;16.10;39.70
67194;DHT22;54121;53.508;49.422;2022-11-11T11:26:12;16.50;38.60
67194;DHT22;54121;53.508;49.422;2022-11-11T11:28:59;16.50;38.80
67194;DHT22;54121;53.508;49.422;2022-11-11T11:31:37;16.80;38.10
67194;DHT22;54121;53.508;49.422;2022-11-11T11:34:04;16.90;37.10
67194;DHT22;54121;53.508;49.422;2022-11-11T11:36:31;16.30;38.00
67194;DHT22;54121;53.508;49.422;2022-11-11T11:38:57;16.10;39.20
67194;DHT22;54121;53.508;49.422;2022-11-11T11:41:42;16.60;38.10
67194;DHT22;54121;53.508;49.422;2022-11-11T11:44:37;16.50;38.30
67194;DHT22;54121;53.508;49.422;2022-11-11T11:50:23;17.30;36.00
67194;DHT22;54121;53.508;49.422;2022-11-11T12:04:41;15.90;39.60
67194;DHT22;54121;53.508;49.422;2022-11-11T12:07:30;15.90;39.70
67194;DHT22;54121;53.508;49.422;2022-11-11T12:32:14;16.90;36.90
67194;DHT22;54121;53.508;49.422;2022-11-11T12:35:14;16.40;37.70
67194;DHT22;54121;53.508;49.422;2022-11-11T12:41:06;16.70;37.00
67194;DHT22;54121;53.508;49.422;2022-11-11T12:43:49;16.50;37.60
67194;DHT22;54121;53.508;49.422;2022-11-11T12:51:45;16.10;37.80
67194;DHT22;54121;53.508;49.422;2022-11-11T12:54:54;16.30;38.30
67194;DHT22;54121;53.508;49.422;2022-11-11T13:00:08;15.50;39.40
67194;DHT22;54121;53.508;49.422;2022-11-11T13:06:15;15.20;41.40
67194;DHT22;54121;53.508;49.422;2022-11-11T13:12:06;14.60;42.70
67194;DHT22;54121;53.508;49.422;2022-11-11T13:15:06;14.70;42.10
67194;DHT22;54121;53.508;49.422;2022-11-11T13:17:37;13.80;44.00
67194;DHT22;54121;53.508;49.422;2022-11-11T13:22:48;14.00;43.90
67194;DHT22;54121;53.508;49.422;2022-11-11T13:25:22;13.90;44.10
67194;DHT22;54121;53.508;49.422;2022-11-11T13:30:52;13.50;45.30
67194;DHT22;54121;53.508;49.422;2022-11-11T13:33:34;13.70;44.50
67194;DHT22;54121;53.508;49.422;2022-11-11T13:36:03;13.60;45.10
67194;DHT22;54121;53.508;49.422;2022-11-11T13:38:36;13.30;45.30
67194;DHT22;54121;53.508;49.422;2022-11-11T13:41:06;13.30;45.70
67194;DHT22;54121;53.508;49.422;2022-11-11T13:43:48;13.30;45.60
67194;DHT22;54121;53.508;49.422;2022-11-11T13:46:51;13.60;44.50
67194;DHT22;54121;53.508;49.422;2022-11-11T13:49:26;13.50;45.50
67194;DHT22;54121;53.508;49.422;2022-11-11T13:52:02;13.60;44.80
67194;DHT22;54121;53.508;49.422;2022-11-11T13:54:33;13.10;46.30
67194;DHT22;54121;53.508;49.422;2022-11-11T13:57:15;13.30;46.00
67194;DHT22;54121;53.508;49.422;2022-11-11T14:00:05;13.40;45.50
67194;DHT22;54121;53.508;49.422;2022-11-11T14:02:34;13.30;45.30
67194;DHT22;54121;53.508;49.422;2022-11-11T14:07:59;13.30;45.00
67194;DHT22;54121;53.508;49.422;2022-11-11T14:15:57;13.20;45.60
67194;DHT22;54121;53.508;49.422;2022-11-11T14:20:53;12.90;46.70
67194;DHT22;54121;53.508;49.422;2022-11-11T14:23:41;13.20;46.10
67194;DHT22;54121;53.508;49.422;2022-11-11T14:36:21;12.90;47.10
67194;DHT22;54121;53.508;49.422;2022-11-11T14:38:53;12.80;47.00
67194;DHT22;54121;53.508;49.422;2022-11-11T14:44:39;12.60;47.40
67194;DHT22;54121;53.508;49.422;2022-11-11T14:52:42;12.40;48.20
67194;DHT22;54121;53.508;49.422;2022-11-11T14:55:18;12.30;48.50
67194;DHT22;54121;53.508;49.422;2022-11-11T15:00:22;12.10;49.10
67194;DHT22;54121;53.508;49.422;2022-11-11T15:03:02;12.00;49.60
67194;DHT22;54121;53.508;49.422;2022-11-11T15:27:39;11.00;54.20
67194;DHT22;54121;53.508;49.422;2022-11-11T15:30:14;10.70;54.70
67194;DHT22;54121;53.508;49.422;2022-11-11T15:36:00;10.70;55.70
67194;DHT22;54121;53.508;49.422;2022-11-11T15:38:29;10.50;56.10
67194;DHT22;54121;53.508;49.422;2022-11-11T15:40:57;10.60;55.90
67194;DHT22;54121;53.508;49.422;2022-11-11T15:43:31;10.60;55.70
67194;DHT22;54121;53.508;49.422;2022-11-11T15:46:00;10.40;56.70
67194;DHT22;54121;53.508;49.422;2022-11-11T15:48:39;10.00;58.10
67194;DHT22;54121;53.508;49.422;2022-11-11T15:53:51;10.10;57.90
67194;DHT22;54121;53.508;49.422;2022-11-11T15:56:29;9.90;58.60
67194;DHT22;54121;53.508;49.422;2022-11-11T15:58:56;9.90;59.20
67194;DHT22;54121;53.508;49.422;2022-11-11T16:01:25;9.70;59.40
67194;DHT22;54121;53.508;49.422;2022-11-11T16:03:53;9.80;59.70
67194;DHT22;54121;53.508;49.422;2022-11-11T16:06:21;9.60;60.00
67194;DHT22;54121;53.508;49.422;2022-11-11T16:08:53;9.50;60.30
67194;DHT22;54121;53.508;49.422;2022-11-11T16:11:21;9.70;60.40
67194;DHT22;54121;53.508;49.422;2022-11-11T16:14:01;9.60;60.20
67194;DHT22;54121;53.508;49.422;2022-11-11T16:16:32;9.40;61.00
67194;DHT22;54121;53.508;49.422;2022-11-11T16:19:32;9.80;60.10
67194;DHT22;54121;53.508;49.422;2022-11-11T16:22:10;9.60;60.30
67194;DHT22;54121;53.508;49.422;2022-11-11T16:24:41;9.60;60.90
67194;DHT22;54121;53.508;49.422;2022-11-11T16:27:11;9.70;60.60
67194;DHT22;54121;53.508;49.422;2022-11-11T16:29:40;9.70;60.60
67194;DHT22;54121;53.508;49.422;2022-11-11T16:34:52;9.50;60.70
67194;DHT22;54121;53.508;49.422;2022-11-11T16:37:20;9.40;61.30
67194;DHT22;54121;53.508;49.422;2022-11-11T16:39:47;9.40;61.60
67194;DHT22;54121;53.508;49.422;2022-11-11T16:42:25;9.60;61.00
67194;DHT22;54121;53.508;49.422;2022-11-11T16:45:04;9.60;60.90
67194;DHT22;54121;53.508;49.422;2022-11-11T16:50:21;9.70;60.60
67194;DHT22;54121;53.508;49.422;2022-11-11T16:52:52;9.70;60.70
67194;DHT22;54121;53.508;49.422;2022-11-11T16:55:45;9.50;61.00
67194;DHT22;54121;53.508;49.422;2022-11-11T17:00:41;9.20;62.60
67194;DHT22;54121;53.508;49.422;2022-11-11T17:03:13;8.90;63.50
67194;DHT22;54121;53.508;49.422;2022-11-11T17:06:03;9.00;63.90
67194;DHT22;54121;53.508;49.422;2022-11-11T17:08:44;9.00;63.70
67194;DHT22;54121;53.508;49.422;2022-11-11T17:14:06;9.30;62.70
67194;DHT22;54121;53.508;49.422;2022-11-11T17:16:33;9.10;62.60
67194;DHT22;54121;53.508;49.422;2022-11-11T17:19:02;9.30;62.60
67194;DHT22;54121;53.508;49.422;2022-11-11T17:21:29;9.50;61.80
67194;DHT22;54121;53.508;49.422;2022-11-11T17:23:55;9.30;62.10
67194;DHT22;54121;53.508;49.422;2022-11-11T17:26:22;9.40;62.30
67194;DHT22;54121;53.508;49.422;2022-11-11T17:28:49;9.30;62.30
67194;DHT22;54121;53.508;49.422;2022-11-11T17:31:15;9.20;62.90
67194;DHT22;54121;53.508;49.422;2022-11-11T17:33:42;9.20;62.70
67194;DHT22;54121;53.508;49.422;2022-11-11T17:36:08;9.00;63.50
67194;DHT22;54121;53.508;49.422;2022-11-11T17:38:35;9.10;63.30
67194;DHT22;54121;53.508;49.422;2022-11-11T17:41:03;9.20;63.10
67194;DHT22;54121;53.508;49.422;2022-11-11T17:43:30;9.30;62.90
67194;DHT22;54121;53.508;49.422;2022-11-11T17:46:00;9.20;62.70
67194;DHT22;54121;53.508;49.422;2022-11-11T17:48:26;9.00;64.10
67194;DHT22;54121;53.508;49.422;2022-11-11T17:50:53;9.10;64.20
67194;DHT22;54121;53.508;49.422;2022-11-11T17:53:20;9.10;63.40
67194;DHT22;54121;53.508;49.422;2022-11-11T17:55:46;9.00;64.00
67194;DHT22;54121;53.508;49.422;2022-11-11T17:58:13;8.90;64.60
67194;DHT22;54121;53.508;49.422;2022-11-11T18:00:39;9.00;64.40
67194;DHT22;54121;53.508;49.422;2022-11-11T18:03:07;8.90;64.40
67194;DHT22;54121;53.508;49.422;2022-11-11T18:05:34;9.00;64.60
67194;DHT22;54121;53.508;49.422;2022-11-11T18:08:02;9.00;64.50
67194;DHT22;54121;53.508;49.422;2022-11-11T18:10:28;8.90;64.50
67194;DHT22;54121;53.508;49.422;2022-11-11T18:12:58;9.00;64.40
67194;DHT22;54121;53.508;49.422;2022-11-11T18:15:25;9.10;64.00
67194;DHT22;54121;53.508;49.422;2022-11-11T18:17:51;9.40;63.20
67194;DHT22;54121;53.508;49.422;2022-11-11T18:20:18;9.40;62.70
67194;DHT22;54121;53.508;49.422;2022-11-11T18:22:44;9.40;63.00
67194;DHT22;54121;53.508;49.422;2022-11-11T18:25:11;9.40;62.40
67194;DHT22;54121;53.508;49.422;2022-11-11T18:27:39;9.30;63.20
67194;DHT22;54121;53.508;49.422;2022-11-11T18:30:06;9.20;64.10
67194;DHT22;54121;53.508;49.422;2022-11-11T18:32:32;9.30;64.10
67194;DHT22;54121;53.508;49.422;2022-11-11T18:34:59;9.30;65.10
67194;DHT22;54121;53.508;49.422;2022-11-11T18:37:26;9.40;66.50
67194;DHT22;54121;53.508;49.422;2022-11-11T18:39:53;9.40;67.40
67194;DHT22;54121;53.508;49.422;2022-11-11T18:42:19;9.40;67.80
67194;DHT22;54121;53.508;49.422;2022-11-11T18:44:46;9.30;69.20
67194;DHT22;54121;53.508;49.422;2022-11-11T18:47:12;9.20;70.20